RYR8865 EDDB-LIPZ
Flight info
| Callsign | RYR8865 |
|---|---|
| Flight time | N/A |
| Altitude | 38000 |
| Route | LUROS4B LUROS Y211 BEBKU Z36 MAREM DCT APRAQ DCT BUDEX DCT TIVAP DCT GIMIX DCT KUBUD DCT OSLOP DCT BADOP DCT ROSKA M859 TULIK DCT BASOG |
| Aircraft | B38M/M-SDE1FGHILORVWXY/HB1 |
Departure
| Time | 2026-05-06 20:29 |
|---|---|
| Airport | Berlin Brandenburg Airport (EDDB) |
Arrival
| Time | N/A |
|---|---|
| Airport | Venice Marco Polo Airport (LIPZ) |
| Time | Latitude | Longitude | Altitude | Speed | Heading |
|---|---|---|---|---|---|
| 2026-05-06 20:06 | 52.36853 | 13.50974 | 157 ft | 0 kts | 159° |
| 2026-05-06 20:16 | 52.36858 | 13.50971 | 157 ft | 4 kts | 159° |
| 2026-05-06 20:16 | 52.36883 | 13.50955 | 157 ft | 4 kts | 159° |
| 2026-05-06 20:16 | 52.36904 | 13.50944 | 157 ft | 4 kts | 183° |
| 2026-05-06 20:17 | 52.36923 | 13.50962 | 157 ft | 4 kts | 241° |
| 2026-05-06 20:17 | 52.36930 | 13.50988 | 157 ft | 1 kts | 249° |
| 2026-05-06 20:17 | 52.36931 | 13.50992 | 157 ft | 0 kts | 249° |
| 2026-05-06 20:23 | 52.36931 | 13.50991 | 157 ft | 1 kts | 249° |
| 2026-05-06 20:23 | 52.36918 | 13.50935 | 157 ft | 14 kts | 249° |
| 2026-05-06 20:23 | 52.36863 | 13.50707 | 157 ft | 27 kts | 249° |
| 2026-05-06 20:23 | 52.36804 | 13.50459 | 157 ft | 12 kts | 249° |
| 2026-05-06 20:24 | 52.36791 | 13.50406 | 157 ft | 1 kts | 249° |
| 2026-05-06 20:24 | 52.36789 | 13.50395 | 157 ft | 2 kts | 249° |
| 2026-05-06 20:24 | 52.36779 | 13.50353 | 157 ft | 7 kts | 249° |
| 2026-05-06 20:24 | 52.36763 | 13.50235 | 157 ft | 13 kts | 284° |
| 2026-05-06 20:25 | 52.36838 | 13.50152 | 157 ft | 15 kts | 340° |
| 2026-05-06 20:25 | 52.36887 | 13.50006 | 157 ft | 18 kts | 253° |
| 2026-05-06 20:25 | 52.36832 | 13.49775 | 157 ft | 27 kts | 248° |
| 2026-05-06 20:25 | 52.36750 | 13.49427 | 157 ft | 39 kts | 249° |
| 2026-05-06 20:26 | 52.36642 | 13.48969 | 157 ft | 46 kts | 249° |
| 2026-05-06 20:26 | 52.36531 | 13.48495 | 157 ft | 39 kts | 249° |
| 2026-05-06 20:26 | 52.36496 | 13.48252 | 157 ft | 11 kts | 291° |
| 2026-05-06 20:26 | 52.36569 | 13.48172 | 157 ft | 16 kts | 339° |
| 2026-05-06 20:27 | 52.36696 | 13.48197 | 157 ft | 24 kts | 58° |
| 2026-05-06 20:27 | 52.36740 | 13.48373 | 157 ft | 4 kts | 68° |
| 2026-05-06 20:27 | 52.36756 | 13.48435 | 157 ft | 7 kts | 70° |
| 2026-05-06 20:27 | 52.36767 | 13.48483 | 157 ft | 1 kts | 68° |
| 2026-05-06 20:28 | 52.36776 | 13.48518 | 157 ft | 12 kts | 68° |
| 2026-05-06 20:28 | 52.36897 | 13.49033 | 157 ft | 84 kts | 69° |
| 2026-05-06 20:28 | 52.37187 | 13.50257 | 158 ft | 145 kts | 69° |
| 2026-05-06 20:28 | 52.37564 | 13.51872 | 649 ft | 154 kts | 69° |
| 2026-05-06 20:29 | 52.37948 | 13.53649 | 1134 ft | 171 kts | 68° |
| 2026-05-06 20:29 | 52.38348 | 13.55361 | 2135 ft | 164 kts | 68° |
| 2026-05-06 20:29 | 52.38788 | 13.57235 | 2664 ft | 188 kts | 68° |
| 2026-05-06 20:29 | 52.39293 | 13.59368 | 3213 ft | 214 kts | 68° |
| 2026-05-06 20:30 | 52.39867 | 13.61780 | 3799 ft | 240 kts | 68° |
| 2026-05-06 20:30 | 52.41173 | 13.67270 | 5317 ft | 275 kts | 68° |
| 2026-05-06 20:30 | 52.41876 | 13.70226 | 6315 ft | 280 kts | 68° |
| 2026-05-06 20:31 | 52.42579 | 13.73189 | 7280 ft | 286 kts | 68° |
| 2026-05-06 20:31 | 52.43316 | 13.76292 | 8281 ft | 292 kts | 69° |
| 2026-05-06 20:31 | 52.44310 | 13.79206 | 9228 ft | 298 kts | 48° |
| 2026-05-06 20:31 | 52.45805 | 13.81550 | 9525 ft | 304 kts | 40° |
| 2026-05-06 20:32 | 52.47382 | 13.83873 | 9642 ft | 305 kts | 40° |
| 2026-05-06 20:32 | 52.48994 | 13.86244 | 10144 ft | 309 kts | 40° |
| 2026-05-06 20:32 | 52.50618 | 13.88629 | 10718 ft | 327 kts | 40° |
| 2026-05-06 20:32 | 52.52370 | 13.91203 | 11172 ft | 347 kts | 41° |
| 2026-05-06 20:33 | 52.54205 | 13.93901 | 11739 ft | 361 kts | 41° |
| 2026-05-06 20:33 | 52.56020 | 13.96806 | 12366 ft | 373 kts | 51° |
| 2026-05-06 20:33 | 52.57241 | 14.00505 | 13205 ft | 376 kts | 73° |
| 2026-05-06 20:33 | 52.57635 | 14.04764 | 13960 ft | 379 kts | 94° |
| 2026-05-06 20:34 | 52.57130 | 14.09000 | 14704 ft | 379 kts | 113° |
| 2026-05-06 20:34 | 52.55873 | 14.12799 | 15431 ft | 380 kts | 126° |
| 2026-05-06 20:34 | 52.54377 | 14.16394 | 16174 ft | 383 kts | 132° |
| 2026-05-06 20:34 | 52.52410 | 14.19309 | 16900 ft | 381 kts | 150° |